Time;durP1;ratioP1;P1;durP2;ratioP2;P2;SDS_P1;SDS_P2;PMS_P1;PMS_P2;Temp;Humidity;BMP_temperature;BMP_pressure;BME280_temperature;BME280_humidity;BME280_pressure;Samples;Min_cycle;Max_cycle;Signal;HPM_P1;HPM_P2
2024/01/28 00:01:32;;;;;;;15.63;2.90;;;;;;;-0.24;100.00;100333.28;15282332;19;20073;-57
2024/01/28 00:06:56;;;;;;;10.77;2.80;;;;;;;-0.22;100.00;100342.06;15034608;19;5001665;-55
2024/01/28 00:12:24;;;;;;;7.30;2.60;;;;;;;-0.28;100.00;100331.63;15284735;19;20394;-54
2024/01/28 00:17:48;;;;;;;13.30;3.08;;;;;;;-0.37;100.00;100314.25;15276627;19;20085;-52
2024/01/28 00:23:13;;;;;;;9.07;2.80;;;;;;;-0.43;100.00;100302.03;15287997;19;20467;-55
2024/01/28 00:28:40;;;;;;;12.45;3.10;;;;;;;-0.48;100.00;100296.88;15278545;19;20553;-56
2024/01/28 00:34:05;;;;;;;9.00;2.13;;;;;;;-0.47;100.00;100295.09;15281988;19;20023;-56
2024/01/28 00:39:29;;;;;;;13.43;3.05;;;;;;;-0.48;100.00;100298.66;15286053;19;20329;-56
2024/01/28 00:45:04;;;;;;;11.82;2.80;;;;;;;-0.52;100.00;100303.19;15282154;19;20074;-56
2024/01/28 00:50:29;;;;;;;10.80;2.47;;;;;;;-0.58;100.00;100297.19;15274805;19;20042;-54
2024/01/28 00:55:53;;;;;;;12.75;2.70;;;;;;;-0.63;100.00;100295.53;15283664;19;20081;-54
2024/01/28 01:01:28;;;;;;;11.02;2.63;;;;;;;-0.59;100.00;100300.75;15280368;19;20014;-55
2024/01/28 01:06:54;;;;;;;9.25;2.50;;;;;;;-0.57;100.00;100304.22;15284816;19;20018;-56
2024/01/28 01:12:18;;;;;;;12.32;3.03;;;;;;;-0.54;100.00;100297.03;15287764;19;20046;-55
2024/01/28 01:17:49;;;;;;;10.13;2.55;;;;;;;-0.51;100.00;100301.38;15301694;19;20024;-56
2024/01/28 01:23:13;;;;;;;10.90;2.80;;;;;;;-0.53;100.00;100295.28;15293223;19;20034;-52
2024/01/28 01:28:38;;;;;;;10.68;2.55;;;;;;;-0.56;100.00;100285.63;15288415;19;20029;-54
2024/01/28 01:34:05;;;;;;;13.30;3.10;;;;;;;-0.59;100.00;100293.69;15299328;19;20369;-55
2024/01/28 01:39:30;;;;;;;14.80;3.20;;;;;;;-0.62;100.00;100288.47;15290024;19;20015;-55
2024/01/28 01:45:02;;;;;;;11.00;2.90;;;;;;;-0.64;100.00;100274.41;15290317;19;20503;-55
2024/01/28 01:50:30;;;;;;;10.63;3.00;;;;;;;-0.62;100.00;100276.09;15289152;19;20014;-55
2024/01/28 01:55:55;;;;;;;10.02;2.70;;;;;;;-0.62;100.00;100272.59;15292382;19;20471;-55
2024/01/28 02:01:21;;;;;;;13.07;2.90;;;;;;;-0.75;100.00;100274.69;15293057;19;20024;-55
2024/01/28 02:06:48;;;;;;;10.93;2.97;;;;;;;-0.95;100.00;100270.84;15297571;19;20105;-53
2024/01/28 02:12:13;;;;;;;10.68;2.97;;;;;;;-1.12;100.00;100270.44;15288881;19;20022;-57
2024/01/28 02:17:37;;;;;;;13.00;3.13;;;;;;;-1.20;100.00;100277.69;15289085;19;20018;-55
2024/01/28 02:23:07;;;;;;;13.40;3.15;;;;;;;-1.20;100.00;100277.69;15292587;19;20036;-55
2024/01/28 02:28:34;;;;;;;14.05;3.15;;;;;;;-1.17;100.00;100278.47;15287431;19;20028;-56
2024/01/28 02:33:59;;;;;;;15.10;3.70;;;;;;;-1.14;100.00;100272.25;15296763;19;20014;-56
2024/01/28 02:39:23;;;;;;;13.57;3.28;;;;;;;-1.13;100.00;100266.06;15290761;19;20019;-53
2024/01/28 02:44:57;;;;;;;13.10;3.05;;;;;;;-1.11;100.00;100265.09;15286877;19;20025;-55
2024/01/28 02:50:22;;;;;;;10.95;3.25;;;;;;;-1.12;100.00;100262.50;15287610;19;20097;-52
2024/01/28 02:55:49;;;;;;;7.70;2.80;;;;;;;-1.17;100.00;100264.41;15293342;19;20035;-55
2024/01/28 03:01:17;;;;;;;15.15;3.33;;;;;;;-1.11;100.00;100272.16;15285682;19;20028;-54
2024/01/28 03:06:41;;;;;;;11.32;3.00;;;;;;;-1.11;100.00;100261.56;15289612;19;20388;-55
2024/01/28 03:12:07;;;;;;;11.55;3.60;;;;;;;-1.18;100.00;100260.03;15293226;19;20797;-56
2024/01/28 03:17:34;;;;;;;7.78;2.80;;;;;;;-1.28;100.00;100257.63;15296651;19;20077;-56
2024/01/28 03:22:59;;;;;;;10.00;2.90;;;;;;;-1.36;100.00;100256.97;15287333;19;20019;-55
2024/01/28 03:28:24;;;;;;;10.52;2.72;;;;;;;-1.41;100.00;100254.41;15282317;19;20018;-55
2024/01/28 03:33:52;;;;;;;8.85;2.70;;;;;;;-1.48;100.00;100262.56;15279188;19;20093;-55
2024/01/28 03:39:16;;;;;;;10.93;2.90;;;;;;;-1.49;100.00;100258.19;15283599;19;20014;-52
2024/01/28 03:44:47;;;;;;;14.38;3.55;;;;;;;-1.51;100.00;100255.56;15282035;19;20509;-54
2024/01/28 03:50:19;;;;;;;14.70;3.33;;;;;;;-1.55;100.00;100262.72;15283937;19;20486;-53
2024/01/28 03:55:45;;;;;;;12.10;3.10;;;;;;;-1.56;100.00;100265.41;15286586;19;20006;-53
2024/01/28 04:01:11;;;;;;;13.02;3.10;;;;;;;-1.59;100.00;100266.34;15283448;19;20090;-53
2024/01/28 04:06:38;;;;;;;12.20;3.33;;;;;;;-1.61;100.00;100265.53;15283601;19;20018;-52
2024/01/28 04:12:04;;;;;;;14.07;3.60;;;;;;;-1.65;100.00;100248.00;15283359;19;20473;-54
2024/01/28 04:17:28;;;;;;;12.43;3.53;;;;;;;-1.55;100.00;100244.22;15288517;19;20570;-55
2024/01/28 04:22:56;;;;;;;14.02;3.03;;;;;;;-1.49;100.00;100248.47;15286004;19;20038;-52
2024/01/28 04:28:23;;;;;;;15.02;3.22;;;;;;;-1.42;100.00;100235.97;15278896;19;20028;-55
2024/01/28 04:33:48;;;;;;;12.05;3.17;;;;;;;-1.36;100.00;100227.00;15283209;19;20526;-50
2024/01/28 04:39:15;;;;;;;13.77;3.33;;;;;;;-1.34;100.00;100231.34;15278087;19;20015;-54
2024/01/28 04:44:46;;;;;;;13.30;3.20;;;;;;;-1.32;100.00;100232.16;15279440;19;20035;-51
2024/01/28 04:50:12;;;;;;;13.70;2.97;;;;;;;-1.32;100.00;100231.31;15307830;19;20011;-53
2024/01/28 04:55:39;;;;;;;8.95;2.72;;;;;;;-1.33;100.00;100235.72;15309627;19;20021;-52
2024/01/28 05:01:04;;;;;;;8.07;2.83;;;;;;;-1.41;100.00;100232.41;15310743;19;20015;-55
2024/01/28 05:06:34;;;;;;;13.80;3.33;;;;;;;-1.46;100.00;100234.28;15311098;19;20013;-50
2024/01/28 05:12:02;;;;;;;15.63;3.55;;;;;;;-1.47;100.00;100244.00;15307894;19;20025;-56
2024/01/28 05:17:26;;;;;;;10.35;3.42;;;;;;;-1.49;100.00;100244.97;15313279;19;20014;-55
2024/01/28 05:22:51;;;;;;;8.73;2.97;;;;;;;-1.50;100.00;100237.94;15311758;19;20046;-53
2024/01/28 05:28:20;;;;;;;10.60;3.15;;;;;;;-1.58;100.00;100236.34;15303169;19;20037;-56
2024/01/28 05:33:46;;;;;;;15.60;3.05;;;;;;;-1.57;100.00;100234.59;15308236;19;20037;-54
2024/01/28 05:39:11;;;;;;;13.77;3.05;;;;;;;-1.56;100.00;100228.41;15298444;19;20014;-55
2024/01/28 05:44:45;;;;;;;10.48;2.85;;;;;;;-1.57;100.00;100224.88;15306042;19;20508;-55
2024/01/28 05:50:14;;;;;;;11.52;2.50;;;;;;;-1.58;100.00;100228.41;15297592;19;20038;-52
2024/01/28 05:55:38;;;;;;;8.75;2.67;;;;;;;-1.59;100.00;100225.81;15307404;19;20082;-54
2024/01/28 06:01:08;;;;;;;11.43;2.45;;;;;;;-1.58;100.00;100217.84;15286160;19;20019;-55
2024/01/28 06:06:32;;;;;;;10.55;2.80;;;;;;;-1.52;100.00;100211.53;15292057;19;20011;-55
2024/01/28 06:11:57;;;;;;;7.63;2.35;;;;;;;-1.64;100.00;100210.09;15284842;19;20424;-56
2024/01/28 06:17:24;;;;;;;14.40;2.72;;;;;;;-1.78;100.00;100209.56;15295965;19;20087;-56
2024/01/28 06:22:49;;;;;;;11.10;2.85;;;;;;;-1.87;100.00;100219.47;15293141;19;20018;-55
2024/01/28 06:28:15;;;;;;;12.00;2.70;;;;;;;-1.84;100.00;100229.09;15294394;19;20014;-55
2024/01/28 06:33:43;;;;;;;10.43;2.75;;;;;;;-1.83;100.00;100225.53;15290788;19;20014;-55
2024/01/28 06:39:08;;;;;;;13.77;2.80;;;;;;;-1.82;100.00;100226.44;15290335;19;20574;-52
2024/01/28 06:44:40;;;;;;;9.25;2.60;;;;;;;-1.87;100.00;100227.41;15286689;19;20021;-55
2024/01/28 06:50:09;;;;;;;10.65;3.00;;;;;;;-1.98;100.00;100217.97;15289974;19;20769;-53
2024/01/28 06:55:33;;;;;;;11.23;3.03;;;;;;;-2.00;100.00;100227.75;15287325;19;20416;-55
2024/01/28 07:00:58;;;;;;;6.68;2.85;;;;;;;-2.00;100.00;100227.75;15283383;19;20019;-55
2024/01/28 07:06:25;;;;;;;15.35;2.70;;;;;;;-1.99;100.00;100235.63;15288415;19;20021;-53
2024/01/28 07:11:50;;;;;;;15.63;3.40;;;;;;;-1.98;100.00;100239.13;15284995;19;20081;-56
2024/01/28 07:17:14;;;;;;;13.13;3.45;;;;;;;-1.91;100.00;100233.66;15286013;19;20022;-54
2024/01/28 07:22:42;;;;;;;9.45;2.80;;;;;;;-1.80;100.00;100229.88;15286922;19;20357;-56
2024/01/28 07:28:06;;;;;;;15.13;4.28;;;;;;;-1.72;100.00;100235.84;15289266;19;20021;-56
2024/01/28 07:33:31;;;;;;;10.10;3.22;;;;;;;-1.68;100.00;100229.56;15288574;19;20031;-57
2024/01/28 07:38:58;;;;;;;11.27;3.20;;;;;;;-1.62;100.00;100226.78;15290049;19;20082;-52
2024/01/28 07:44:23;;;;;;;11.32;2.75;;;;;;;-1.57;100.00;100224.03;15286414;19;20054;-55
2024/01/28 07:49:47;;;;;;;13.65;2.75;;;;;;;-1.50;100.00;100224.72;15282229;19;20014;-54
2024/01/28 07:55:16;;;;;;;7.13;2.45;;;;;;;-1.40;100.00;100218.28;15284481;19;20038;-54
2024/01/28 08:00:40;;;;;;;9.73;2.20;;;;;;;-1.26;100.00;100216.16;15282643;19;20434;-54
2024/01/28 08:06:07;;;;;;;6.25;1.90;;;;;;;-1.08;100.00;100213.88;15285392;19;20360;-52
2024/01/28 08:11:34;;;;;;;8.30;2.08;;;;;;;-0.85;100.00;100210.59;15275230;19;20607;-58
2024/01/28 08:16:59;;;;;;;6.50;2.10;;;;;;;-0.71;100.00;100207.53;15280759;19;20032;-54
2024/01/28 08:22:24;;;;;;;8.88;3.08;;;;;;;-0.70;100.00;100203.97;15276199;19;20018;-56
2024/01/28 08:27:52;;;;;;;8.10;2.55;;;;;;;-0.66;100.00;100199.44;15261966;19;20015;-52
2024/01/28 08:33:16;;;;;;;8.57;2.38;;;;;;;-0.53;100.00;100199.97;15280676;19;20014;-53
2024/01/28 08:38:41;;;;;;;8.38;2.40;;;;;;;-0.40;100.00;100208.38;15283359;19;20729;-53
2024/01/28 08:44:08;;;;;;;7.38;2.20;;;;;;;-0.27;100.00;100200.91;15282172;19;20041;-53
2024/01/28 08:49:33;;;;;;;7.25;1.90;;;;;;;-0.15;100.00;100208.47;15253723;19;20015;-54
2024/01/28 08:54:57;;;;;;;6.65;2.10;;;;;;;-0.04;100.00;100209.00;15268062;19;20350;-53
2024/01/28 09:00:25;;;;;;;5.63;1.88;;;;;;;0.08;100.00;100228.06;15273617;19;20003;-54
2024/01/28 09:05:50;;;;;;;7.18;2.28;;;;;;;0.18;100.00;100234.78;15275396;19;20021;-53
2024/01/28 09:11:15;;;;;;;8.27;2.38;;;;;;;0.26;100.00;100235.44;15277560;19;20082;-58
2024/01/28 09:16:42;;;;;;;8.80;2.22;;;;;;;0.34;100.00;100234.28;15280037;19;20387;-53
2024/01/28 09:22:07;;;;;;;7.78;2.60;;;;;;;0.45;100.00;100234.78;15277947;19;20081;-53
2024/01/28 09:27:31;;;;;;;5.63;2.25;;;;;;;0.57;100.00;100233.53;15276953;19;20016;-56
2024/01/28 09:32:59;;;;;;;4.60;2.00;;;;;;;0.77;100.00;100231.03;15285684;19;20086;-54
2024/01/28 09:38:23;;;;;;;6.90;2.45;;;;;;;0.97;100.00;100217.97;15273625;19;20020;-55
2024/01/28 09:43:54;;;;;;;6.45;2.20;;;;;;;1.13;100.00;100203.19;15292679;19;20090;-53
2024/01/28 09:49:23;;;;;;;4.65;1.98;;;;;;;1.34;100.00;100206.84;15292577;19;20029;-53
2024/01/28 09:54:47;;;;;;;4.88;2.40;;;;;;;1.53;100.00;100191.06;15270413;19;20011;-53
2024/01/28 10:00:13;;;;;;;5.07;2.10;;;;;;;1.76;100.00;100183.13;15282649;19;20481;-52
2024/01/28 10:05:40;;;;;;;5.78;2.28;;;;;;;2.06;100.00;100165.03;15294704;19;20074;-54
2024/01/28 10:11:06;;;;;;;5.00;2.20;;;;;;;2.35;100.00;100156.78;15266934;19;20460;-49
2024/01/28 10:16:34;;;;;;;4.75;2.10;;;;;;;2.56;100.00;100147.84;15290129;19;20014;-54
2024/01/28 10:22:02;;;;;;;6.65;2.03;;;;;;;2.80;100.00;100131.72;15290080;19;20006;-53
2024/01/28 10:27:30;;;;;;;5.18;2.00;;;;;;;3.04;100.00;100128.88;15293905;19;20439;-53
2024/01/28 10:32:55;;;;;;;2.85;1.40;;;;;;;3.18;100.00;100104.25;15285836;19;20038;-52
2024/01/28 10:38:28;;;;;;;3.45;1.70;;;;;;;3.30;100.00;100105.44;15293301;19;20020;-53
2024/01/28 10:44:06;;;;;;;5.47;1.67;;;;;;;3.47;100.00;100104.66;15287625;19;20014;-52
2024/01/28 10:49:34;;;;;;;2.35;1.35;;;;;;;3.67;100.00;100085.88;15034589;19;5001271;-53
2024/01/28 10:55:01;;;;;;;3.72;1.50;;;;;;;3.82;100.00;100083.41;15289438;19;20021;-55
2024/01/28 11:00:28;;;;;;;2.63;1.58;;;;;;;3.97;100.00;100079.94;15288591;19;20011;-52
2024/01/28 11:05:53;;;;;;;3.78;1.40;;;;;;;4.11;100.00;100063.25;15286675;19;20025;-54
2024/01/28 11:11:20;;;;;;;2.80;1.38;;;;;;;4.32;100.00;100055.91;15289484;19;20023;-52
2024/01/28 11:16:46;;;;;;;2.72;1.30;;;;;;;4.51;100.00;100044.25;15284963;19;20018;-53
2024/01/28 11:22:16;;;;;;;2.92;1.25;;;;;;;4.68;100.00;100034.47;15284085;19;20020;-52
2024/01/28 11:27:47;;;;;;;2.10;1.20;;;;;;;4.83;100.00;100036.28;15290516;19;20046;-55
2024/01/28 11:33:13;;;;;;;1.83;1.00;;;;;;;5.03;100.00;100029.84;15283917;19;20378;-54
2024/01/28 11:38:45;;;;;;;2.22;1.20;;;;;;;5.15;100.00;100022.94;15288103;19;20747;-53
2024/01/28 11:44:19;;;;;;;2.63;1.27;;;;;;;5.47;100.00;100027.38;15288761;19;20081;-55
2024/01/28 11:49:45;;;;;;;2.92;1.30;;;;;;;5.68;100.00;100010.09;15286356;19;20342;-52
2024/01/28 11:55:19;;;;;;;2.92;1.45;;;;;;;5.91;100.00;100004.34;15283390;19;20015;-58
2024/01/28 12:00:46;;;;;;;2.15;1.20;;;;;;;6.11;100.00;99993.31;15290287;19;20018;-54
2024/01/28 12:06:12;;;;;;;1.85;1.00;;;;;;;6.30;100.00;99981.44;15282982;19;20085;-52
2024/01/28 12:11:37;;;;;;;2.35;1.10;;;;;;;6.58;100.00;99969.00;15284034;19;20531;-51
2024/01/28 12:17:05;;;;;;;2.13;0.90;;;;;;;6.82;100.00;99969.25;15286249;19;20010;-50
2024/01/28 12:22:29;;;;;;;1.60;0.88;;;;;;;7.13;100.00;99963.72;15281732;19;20384;-52
2024/01/28 12:27:54;;;;;;;1.50;0.80;;;;;;;7.35;100.00;99944.38;15286159;19;20028;-52
2024/01/28 12:33:22;;;;;;;1.25;1.00;;;;;;;7.57;100.00;99935.75;15284318;19;20014;-51
2024/01/28 12:38:47;;;;;;;1.52;0.95;;;;;;;7.78;100.00;99940.59;15283459;19;20081;-56
2024/01/28 12:44:19;;;;;;;2.53;1.05;;;;;;;7.97;100.00;99938.34;15282625;19;20070;-56
2024/01/28 12:49:46;;;;;;;1.17;0.80;;;;;;;8.16;100.00;99929.88;15281934;19;20602;-56
2024/01/28 12:55:12;;;;;;;1.08;0.70;;;;;;;8.34;100.00;99932.22;15292551;19;20567;-57
2024/01/28 13:00:36;;;;;;;2.15;0.93;;;;;;;8.57;100.00;99930.59;15283804;19;20021;-56
2024/01/28 13:06:04;;;;;;;1.10;0.70;;;;;;;8.82;100.00;99923.44;15285457;19;20039;-56
2024/01/28 13:11:28;;;;;;;1.60;0.80;;;;;;;9.05;100.00;99904.72;15305740;19;20030;-54
2024/01/28 13:16:55;;;;;;;1.52;0.80;;;;;;;9.29;100.00;99902.00;15349339;19;20022;-57
2024/01/28 13:22:23;;;;;;;1.08;0.70;;;;;;;9.52;100.00;99894.03;15327121;19;20014;-57
2024/01/28 13:27:50;;;;;;;1.30;0.70;;;;;;;9.66;100.00;99898.34;15330706;19;20039;-59
2024/01/28 13:33:14;;;;;;;1.92;0.75;;;;;;;9.86;100.00;99892.25;15329945;19;20492;-59
2024/01/28 13:38:43;;;;;;;1.00;0.77;;;;;;;10.04;100.00;99891.78;15326368;19;20025;-59
2024/01/28 13:44:08;;;;;;;1.63;0.60;;;;;;;10.27;100.00;99887.25;15297258;19;20093;-56
2024/01/28 13:49:34;;;;;;;2.53;0.73;;;;;;;10.45;100.00;99890.34;15295616;19;20014;-57
2024/01/28 13:55:02;;;;;;;0.40;0.40;;;;;;;10.58;100.00;99890.22;15292810;19;20349;-58
2024/01/28 14:00:28;;;;;;;1.00;0.60;;;;;;;10.68;100.00;99890.28;15292860;19;20038;-55
2024/01/28 14:05:53;;;;;;;1.05;0.73;;;;;;;10.89;100.00;99886.81;15294250;19;20027;-56
2024/01/28 14:11:20;;;;;;;1.45;0.60;;;;;;;11.07;100.00;99884.41;15289168;19;20018;-56
2024/01/28 14:16:44;;;;;;;0.90;0.60;;;;;;;11.24;100.00;99881.16;15283291;19;20082;-57
2024/01/28 14:22:09;;;;;;;0.82;0.50;;;;;;;11.37;100.00;99877.44;15284450;19;20022;-58
2024/01/28 14:27:36;;;;;;;1.63;0.73;;;;;;;11.45;100.00;99874.94;15292369;19;20089;-56
2024/01/28 14:33:01;;;;;;;1.33;0.80;;;;;;;11.55;100.00;99872.31;15291070;19;20018;-56
2024/01/28 14:38:25;;;;;;;1.50;0.80;;;;;;;11.62;100.00;99873.47;15293807;19;20021;-57
2024/01/28 14:43:53;;;;;;;0.70;0.68;;;;;;;11.71;100.00;99864.56;15290517;19;20016;-58
2024/01/28 14:49:18;;;;;;;1.15;0.60;;;;;;;11.70;100.00;99867.41;15283376;19;20043;-56
2024/01/28 14:54:43;;;;;;;0.80;0.80;;;;;;;11.60;100.00;99864.66;15289131;19;20014;-57
2024/01/28 15:00:11;;;;;;;1.05;0.60;;;;;;;11.39;100.00;99870.06;15287058;19;20011;-53
2024/01/28 15:05:37;;;;;;;0.82;0.80;;;;;;;11.20;100.00;99862.69;15290199;19;20028;-57
2024/01/28 15:11:03;;;;;;;1.35;0.70;;;;;;;11.23;100.00;99859.72;15287877;19;20038;-56
2024/01/28 15:16:31;;;;;;;0.77;0.60;;;;;;;11.31;100.00;99868.00;15286716;19;20024;-56
2024/01/28 15:21:56;;;;;;;1.00;0.70;;;;;;;11.31;100.00;99859.06;15281211;19;20017;-57
2024/01/28 15:27:21;;;;;;;0.75;0.70;;;;;;;11.19;100.00;99856.41;15289501;19;20012;-56
2024/01/28 15:32:49;;;;;;;1.58;0.70;;;;;;;10.91;100.00;99857.88;15286354;19;20031;-57
2024/01/28 15:38:15;;;;;;;1.30;0.77;;;;;;;10.64;100.00;99867.28;15287068;19;20489;-57
2024/01/28 15:43:40;;;;;;;0.82;0.68;;;;;;;10.18;100.00;99863.75;15287118;19;20029;-53
2024/01/28 15:49:01;;;;;;;1.27;0.80;;;;;;;9.69;100.00;99860.44;15288809;19;20086;-56
2024/01/28 15:54:26;;;;;;;1.00;0.80;;;;;;;9.18;100.00;99856.25;15280224;19;20013;-57
2024/01/28 15:59:55;;;;;;;1.58;0.85;;;;;;;8.78;100.00;99857.44;15284910;19;20011;-57
2024/01/28 16:05:28;;;;;;;1.10;0.70;;;;;;;8.45;100.00;99850.88;15286609;19;20021;-57
2024/01/28 16:10:52;;;;;;;1.30;0.70;;;;;;;8.14;100.00;99863.84;15281912;19;20537;-57
2024/01/28 16:16:24;;;;;;;2.13;1.00;;;;;;;7.89;100.00;99862.91;15281247;19;20025;-56
2024/01/28 16:21:51;;;;;;;1.10;0.80;;;;;;;7.65;100.00;99866.34;15282327;19;20086;-55
2024/01/28 16:27:17;;;;;;;1.10;0.70;;;;;;;7.46;100.00;99872.13;15275266;19;20090;-59
2024/01/28 16:32:41;;;;;;;1.50;0.80;;;;;;;7.27;100.00;99872.50;15280437;19;20093;-57
2024/01/28 16:38:09;;;;;;;2.45;1.10;;;;;;;7.11;100.00;99871.84;15280199;19;20093;-58
2024/01/28 16:43:33;;;;;;;1.23;0.80;;;;;;;6.93;100.00;99872.09;15276288;19;20010;-58
2024/01/28 16:48:59;;;;;;;1.15;0.90;;;;;;;6.77;100.00;99875.78;15278893;19;20775;-59
2024/01/28 16:54:26;;;;;;;1.88;0.90;;;;;;;6.60;100.00;99873.38;15280540;19;20010;-56
2024/01/28 16:59:51;;;;;;;1.63;0.95;;;;;;;6.46;100.00;99867.09;15275892;19;20014;-56
2024/01/28 17:05:15;;;;;;;1.73;1.10;;;;;;;6.32;100.00;99878.69;15278697;19;20011;-56
2024/01/28 17:10:43;;;;;;;1.90;1.00;;;;;;;6.20;100.00;99878.59;15279663;19;20029;-59
2024/01/28 17:16:01;;;;;;;1.58;1.00;;;;;;;6.06;100.00;99864.28;15281199;19;20014;-57
2024/01/28 17:21:25;;;;;;;1.38;1.00;;;;;;;5.93;100.00;99861.50;15276101;19;20031;-58
2024/01/28 17:26:53;;;;;;;1.48;1.05;;;;;;;5.83;100.00;99868.38;15280716;19;20410;-58
2024/01/28 17:32:17;;;;;;;3.08;0.95;;;;;;;5.78;100.00;99870.47;15272399;19;20017;-57
2024/01/28 17:37:43;;;;;;;1.17;0.90;;;;;;;5.81;100.00;99876.50;15274764;19;20355;-57
2024/01/28 17:43:11;;;;;;;1.38;0.98;;;;;;;5.75;100.00;99882.22;15270409;19;20090;-54
2024/01/28 17:48:37;;;;;;;1.88;0.90;;;;;;;5.77;100.00;99869.63;15272969;19;20466;-55
2024/01/28 17:54:01;;;;;;;2.70;1.10;;;;;;;5.78;100.00;99865.09;15284638;19;20430;-57
2024/01/28 17:59:29;;;;;;;1.77;1.00;;;;;;;5.71;100.00;99860.16;15293005;19;20336;-56
2024/01/28 18:04:55;;;;;;;1.58;1.10;;;;;;;5.66;100.00;99862.25;15290075;19;20010;-56
2024/01/28 18:10:20;;;;;;;1.40;1.00;;;;;;;5.52;100.00;99855.06;15293159;19;20067;-57
2024/01/28 18:15:47;;;;;;;1.85;1.15;;;;;;;5.37;100.00;99856.88;15294714;19;20011;-57
2024/01/28 18:21:13;;;;;;;2.67;1.13;;;;;;;5.27;100.00;99854.84;15293510;19;20010;-58
2024/01/28 18:26:39;;;;;;;3.35;1.33;;;;;;;5.20;100.00;99844.53;15293612;19;20090;-56
2024/01/28 18:32:06;;;;;;;1.35;1.00;;;;;;;5.15;100.00;99848.44;15286562;19;20028;-56
2024/01/28 18:37:31;;;;;;;1.90;1.30;;;;;;;5.09;100.00;99852.31;15288162;19;20018;-57
2024/01/28 18:42:55;;;;;;;1.35;1.00;;;;;;;5.04;100.00;99855.28;15292665;19;20007;-57
2024/01/28 18:48:22;;;;;;;2.95;0.90;;;;;;;5.07;100.00;99852.41;15294065;19;20010;-54
2024/01/28 18:53:47;;;;;;;2.13;1.10;;;;;;;5.04;100.00;99852.59;15292927;19;20502;-57
2024/01/28 18:59:12;;;;;;;1.20;0.93;;;;;;;5.01;100.00;99857.22;15285749;19;20010;-58
2024/01/28 19:04:40;;;;;;;1.45;1.10;;;;;;;4.96;100.00;99868.19;15288278;19;20097;-59
2024/01/28 19:10:05;;;;;;;1.73;1.20;;;;;;;4.94;100.00;99870.97;15287290;19;20622;-57
2024/01/28 19:15:29;;;;;;;4.20;1.13;;;;;;;4.97;100.00;99869.06;15288275;19;20024;-53
2024/01/28 19:20:56;;;;;;;1.35;1.00;;;;;;;4.89;100.00;99870.34;15284774;19;20514;-56
2024/01/28 19:26:26;;;;;;;2.55;1.30;;;;;;;4.84;100.00;99860.88;15288676;19;20089;-56
2024/01/28 19:31:52;;;;;;;1.45;1.00;;;;;;;4.75;100.00;99848.97;15285278;19;20035;-56
2024/01/28 19:37:19;;;;;;;2.13;1.30;;;;;;;4.65;100.00;99864.63;15277323;19;20011;-56
2024/01/28 19:42:44;;;;;;;1.83;1.30;;;;;;;4.59;100.00;99857.84;15283386;19;20019;-56
2024/01/28 19:48:09;;;;;;;1.45;1.10;;;;;;;4.52;100.00;99859.16;15288719;19;20014;-59
2024/01/28 19:53:37;;;;;;;1.77;1.20;;;;;;;4.53;100.00;99849.31;15282821;19;20019;-56
2024/01/28 19:59:02;;;;;;;1.50;1.10;;;;;;;4.49;100.00;99851.31;15285256;19;20018;-55
2024/01/28 20:04:27;;;;;;;1.20;1.05;;;;;;;4.44;100.00;99846.25;15289465;19;20050;-57
2024/01/28 20:09:59;;;;;;;2.40;1.20;;;;;;;4.36;100.00;99839.59;15276643;19;20505;-56
2024/01/28 20:15:24;;;;;;;1.43;1.30;;;;;;;4.28;100.00;99840.03;15279197;19;20098;-56
2024/01/28 20:20:49;;;;;;;1.70;1.17;;;;;;;4.23;100.00;99842.97;15269453;19;20316;-58
2024/01/28 20:26:18;;;;;;;2.22;1.15;;;;;;;4.19;100.00;99840.56;15271231;19;20494;-54
2024/01/28 20:31:44;;;;;;;1.95;1.30;;;;;;;4.19;100.00;99829.88;15279808;19;20018;-53
2024/01/28 20:37:08;;;;;;;2.40;1.20;;;;;;;4.17;100.00;99819.31;15282851;19;20029;-58
2024/01/28 20:42:37;;;;;;;2.30;1.17;;;;;;;4.18;100.00;99822.81;15284649;19;20025;-55
2024/01/28 20:48:09;;;;;;;2.40;1.42;;;;;;;4.13;100.00;99810.59;15286017;19;20078;-57
2024/01/28 20:53:33;;;;;;;2.20;1.30;;;;;;;4.09;100.00;99821.53;15280630;19;20099;-57
2024/01/28 20:59:01;;;;;;;1.98;1.33;;;;;;;4.08;100.00;99811.78;15277679;19;20110;-52
2024/01/28 21:04:25;;;;;;;2.03;1.33;;;;;;;4.01;100.00;99819.28;15278390;19;20435;-55
2024/01/28 21:09:50;;;;;;;1.70;1.40;;;;;;;3.94;100.00;99807.25;15278758;19;20367;-54
2024/01/28 21:15:17;;;;;;;2.38;1.35;;;;;;;3.91;100.00;99802.94;15278239;19;20018;-58
2024/01/28 21:20:42;;;;;;;2.38;1.50;;;;;;;3.94;100.00;99793.91;15278928;19;20090;-56
2024/01/28 21:26:06;;;;;;;2.03;1.30;;;;;;;3.88;100.00;99784.44;15282430;19;20363;-53
2024/01/28 21:31:34;;;;;;;3.40;1.42;;;;;;;3.81;100.00;99783.06;15289038;19;20014;-55
2024/01/28 21:36:59;;;;;;;2.35;1.50;;;;;;;3.78;100.00;99788.56;15294483;19;20026;-55
2024/01/28 21:42:23;;;;;;;2.83;1.50;;;;;;;3.74;100.00;99787.00;15294825;19;20094;-56
2024/01/28 21:47:57;;;;;;;3.75;1.70;;;;;;;3.67;100.00;99791.81;15287482;19;20213;-53
2024/01/28 21:53:23;;;;;;;1.92;1.40;;;;;;;3.59;100.00;99789.53;15296432;19;20025;-58
2024/01/28 21:58:47;;;;;;;1.88;1.50;;;;;;;3.53;100.00;99792.56;15290013;19;20014;-57
2024/01/28 22:04:14;;;;;;;2.53;1.60;;;;;;;3.51;100.00;99789.09;15298319;19;20020;-58
2024/01/28 22:09:39;;;;;;;3.65;1.70;;;;;;;3.52;100.00;99793.50;15289727;19;20086;-57
2024/01/28 22:15:04;;;;;;;1.85;1.58;;;;;;;3.49;100.00;99791.00;15296558;19;20391;-56
2024/01/28 22:20:31;;;;;;;2.95;1.70;;;;;;;3.43;100.00;99799.31;15286376;19;20494;-56
2024/01/28 22:26:02;;;;;;;2.05;1.55;;;;;;;3.45;100.00;99790.28;14774640;19;10002087;-53
2024/01/28 22:31:28;;;;;;;2.13;1.42;;;;;;;3.45;100.00;99792.13;15285969;19;20021;-55
2024/01/28 22:36:55;;;;;;;2.88;1.75;;;;;;;3.48;100.00;99794.59;15291608;19;20078;-56
2024/01/28 22:42:20;;;;;;;2.47;1.60;;;;;;;3.55;100.00;99783.53;15288016;19;20331;-57
2024/01/28 22:47:52;;;;;;;2.95;1.60;;;;;;;3.45;100.00;99766.31;15291447;19;20022;-58
2024/01/28 22:53:19;;;;;;;2.35;1.45;;;;;;;3.42;100.00;99776.28;15291182;19;20614;-58
2024/01/28 22:58:44;;;;;;;2.28;1.48;;;;;;;3.37;100.00;99774.72;15289957;19;20021;-56
2024/01/28 23:04:09;;;;;;;2.67;1.50;;;;;;;3.36;100.00;99780.13;15294273;19;20873;-57
2024/01/28 23:09:36;;;;;;;2.20;1.38;;;;;;;3.31;100.00;99766.19;15296961;19;20014;-58
2024/01/28 23:15:00;;;;;;;2.80;1.63;;;;;;;3.26;100.00;99774.44;15297351;19;20061;-56
2024/01/28 23:20:37;;;;;;;1.98;1.40;;;;;;;3.17;100.00;99777.59;15294659;19;20115;-56
2024/01/28 23:26:06;;;;;;;2.55;1.35;;;;;;;3.14;100.00;99769.75;15289437;19;20678;-58
2024/01/28 23:31:30;;;;;;;2.67;1.50;;;;;;;3.17;100.00;99756.28;15292173;19;20025;-58
2024/01/28 23:36:55;;;;;;;2.25;1.30;;;;;;;3.18;100.00;99758.84;15288797;19;20030;-57
2024/01/28 23:42:22;;;;;;;2.28;1.40;;;;;;;3.17;100.00;99750.94;15289999;19;20481;-57
2024/01/28 23:47:53;;;;;;;2.30;1.25;;;;;;;3.18;100.00;99750.00;15288358;19;20033;-57
2024/01/28 23:53:17;;;;;;;1.98;1.20;;;;;;;3.17;100.00;99750.94;15289903;19;20424;-55
2024/01/28 23:58:45;;;;;;;1.95;1.30;;;;;;;3.26;100.00;99750.47;15283010;19;20037;-58
